createdAt,value
2019-04-01T00:00:40.915Z,0.0
2019-04-01T00:03:28.455Z,0.0
2019-04-01T00:06:28.922Z,0.0
2019-04-01T00:09:28.308Z,0.0
2019-04-01T00:12:28.822Z,0.0
2019-04-01T00:15:28.388Z,0.0
2019-04-01T00:18:28.921Z,0.0
2019-04-01T00:21:28.533Z,0.0
2019-04-01T00:24:28.905Z,0.0
2019-04-01T00:27:28.419Z,0.0
2019-04-01T00:30:28.879Z,0.0
2019-04-01T00:33:28.354Z,0.0
2019-04-01T00:36:28.952Z,0.0
2019-04-01T00:39:28.376Z,0.0
2019-04-01T00:42:34.851Z,0.0
2019-04-01T00:45:28.614Z,0.0
2019-04-01T00:48:28.210Z,0.0
2019-04-01T00:51:28.677Z,0.0
2019-04-01T00:54:28.309Z,0.0
2019-04-01T00:57:28.938Z,0.0
2019-04-01T01:00:28.453Z,0.0
2019-04-01T01:03:29.034Z,0.0
2019-04-01T01:06:28.598Z,0.0
2019-04-01T01:09:28.117Z,0.0
2019-04-01T01:12:28.740Z,0.0
2019-04-01T01:15:28.298Z,0.0
2019-04-01T01:18:28.775Z,0.0
2019-04-01T01:21:28.284Z,0.0
2019-04-01T01:24:32.235Z,0.0
2019-04-01T01:27:27.935Z,0.0
2019-04-01T01:30:28.392Z,0.0
2019-04-01T01:33:30.333Z,0.0
2019-04-01T01:36:28.716Z,0.0
2019-04-01T01:39:28.284Z,0.0
2019-04-01T01:42:28.762Z,0.0
2019-04-01T01:45:28.259Z,0.0
2019-04-01T01:48:28.935Z,0.0
2019-04-01T01:51:28.429Z,0.0
2019-04-01T01:54:28.986Z,0.0
2019-04-01T01:57:28.562Z,0.0
2019-04-01T02:00:28.489Z,0.0
2019-04-01T02:03:28.936Z,0.0
2019-04-01T02:06:28.365Z,0.0
2019-04-01T02:09:28.933Z,0.0
2019-04-01T02:12:28.480Z,0.0
2019-04-01T02:15:28.992Z,0.0
2019-04-01T02:18:28.576Z,0.0
2019-04-01T02:21:28.043Z,0.0
2019-04-01T02:24:28.507Z,0.0
2019-04-01T02:27:27.955Z,0.0
2019-04-01T02:30:28.435Z,0.0
2019-04-01T02:33:28.987Z,0.0
2019-04-01T02:36:28.511Z,0.0
2019-04-01T02:39:29.146Z,0.0
2019-04-01T02:42:28.634Z,0.0
2019-04-01T02:45:28.197Z,0.0
2019-04-01T02:48:28.756Z,0.0
2019-04-01T02:51:28.235Z,0.0
2019-04-01T02:54:28.785Z,0.0
2019-04-01T02:57:28.277Z,0.0
2019-04-01T03:00:28.957Z,0.0
2019-04-01T03:03:28.588Z,0.0
2019-04-01T03:06:28.140Z,0.0
2019-04-01T03:09:28.734Z,0.0
2019-04-01T03:12:28.444Z,0.0
2019-04-01T03:15:29.173Z,0.0
2019-04-01T03:18:28.753Z,0.0
2019-04-01T03:21:28.334Z,0.0
2019-04-01T03:24:28.824Z,0.0
2019-04-01T03:27:30.935Z,0.0
2019-04-01T03:30:28.386Z,0.0
2019-04-01T03:33:29.024Z,0.0
2019-04-01T03:36:28.559Z,0.0
2019-04-01T03:39:28.267Z,0.0
2019-04-01T03:42:29.068Z,0.0
2019-04-01T03:45:28.771Z,0.0
2019-04-01T03:48:28.310Z,0.0
2019-04-01T03:51:28.891Z,0.0
2019-04-01T03:54:28.394Z,0.0
2019-04-01T03:57:28.913Z,0.0
2019-04-01T04:00:28.434Z,0.0
2019-04-01T04:03:29.040Z,0.0
2019-04-01T04:06:28.512Z,0.0
2019-04-01T04:09:28.203Z,0.0
2019-04-01T04:12:28.935Z,0.0
2019-04-01T04:15:28.456Z,0.0
2019-04-01T04:18:28.255Z,0.0
2019-04-01T04:21:28.853Z,0.0
2019-04-01T04:24:28.578Z,0.0
2019-04-01T04:27:28.638Z,0.0
2019-04-01T04:30:28.287Z,0.0
2019-04-01T04:33:28.991Z,0.0
2019-04-01T04:36:28.711Z,0.0
2019-04-01T04:39:28.511Z,0.0
2019-04-01T04:42:28.060Z,0.0
2019-04-01T04:45:28.755Z,0.0
2019-04-01T04:48:28.369Z,0.0
2019-04-01T04:51:29.007Z,0.0
2019-04-01T04:54:28.570Z,0.0
2019-04-01T04:57:28.179Z,0.01
2019-04-01T05:00:29.015Z,0.0
2019-04-01T05:03:28.625Z,0.01
2019-04-01T05:06:28.331Z,0.01
2019-04-01T05:09:28.979Z,0.0
2019-04-01T05:12:28.565Z,0.02
2019-04-01T05:15:28.337Z,0.01
2019-04-01T05:18:29.014Z,0.0
2019-04-01T05:21:29.450Z,0.0
2019-04-01T05:24:29.321Z,0.0
2019-04-01T05:30:29.764Z,0.0
2019-04-01T05:33:30.765Z,0.0
2019-04-01T05:36:29.031Z,0.0
2019-04-01T05:39:28.735Z,0.0
2019-04-01T05:42:28.507Z,0.0
2019-04-01T05:45:28.306Z,0.0
2019-04-01T05:48:32.269Z,0.0
2019-04-01T05:51:29.016Z,0.03
2019-04-01T05:54:28.898Z,0.0
2019-04-01T05:57:28.804Z,0.0
2019-04-01T06:00:35.249Z,0.0
2019-04-01T06:03:29.154Z,0.13
2019-04-01T06:06:28.909Z,0.24
2019-04-01T06:09:28.592Z,0.22
2019-04-01T06:12:28.627Z,0.28
2019-04-01T06:15:28.475Z,0.26
2019-04-01T06:18:28.383Z,0.28
2019-04-01T06:21:29.408Z,0.3
2019-04-01T06:24:29.015Z,0.37
2019-04-01T06:27:30.039Z,0.39
2019-04-01T06:30:28.603Z,0.41
2019-04-01T06:33:28.306Z,0.44
2019-04-01T06:36:28.957Z,0.42
2019-04-01T06:39:28.627Z,0.46
2019-04-01T06:42:28.287Z,0.49
2019-04-01T06:45:29.213Z,0.56
2019-04-01T06:48:28.992Z,0.55
2019-04-01T06:51:29.065Z,0.58
2019-04-01T06:54:28.814Z,0.62
2019-04-01T06:57:28.681Z,0.73
2019-04-01T07:00:28.295Z,0.77
2019-04-01T07:03:32.181Z,0.82
2019-04-01T07:06:28.971Z,0.84
2019-04-01T07:09:28.536Z,0.94
2019-04-01T07:12:28.182Z,0.99
2019-04-01T07:15:29.020Z,1.06
2019-04-01T07:18:29.015Z,1.08
2019-04-01T07:21:28.733Z,1.14
2019-04-01T07:24:28.536Z,1.19
2019-04-01T07:27:28.653Z,1.25
2019-04-01T07:30:28.263Z,1.36
2019-04-01T07:33:28.814Z,1.37
2019-04-01T07:36:28.680Z,1.46
2019-04-01T07:39:28.686Z,1.58
2019-04-01T07:42:28.416Z,1.63
2019-04-01T07:45:29.494Z,1.73
2019-04-01T07:48:28.300Z,1.7
2019-04-01T07:51:28.095Z,1.77
2019-04-01T07:54:31.928Z,1.89
2019-04-01T07:57:32.390Z,2.01
2019-04-01T08:00:28.534Z,1.83
2019-04-01T08:03:28.430Z,1.8
2019-04-01T08:06:29.303Z,1.88
2019-04-01T08:09:29.299Z,1.8
2019-04-01T08:12:29.239Z,1.83
2019-04-01T08:15:28.911Z,2.05
2019-04-01T08:18:28.672Z,1.92
2019-04-01T08:21:28.586Z,1.87
2019-04-01T08:24:28.241Z,1.99
2019-04-01T08:27:28.898Z,2.01
2019-04-01T08:30:28.715Z,2.04
2019-04-01T08:33:28.419Z,2.1
2019-04-01T08:36:29.132Z,1.88
2019-04-01T08:39:28.899Z,2.01
2019-04-01T08:42:28.789Z,2.09
2019-04-01T08:45:28.534Z,1.87
2019-04-01T08:48:28.424Z,1.74
2019-04-01T08:51:28.232Z,1.71
2019-04-01T08:54:29.042Z,1.7
2019-04-01T08:57:28.680Z,1.53
2019-04-01T09:00:28.807Z,1.62
2019-04-01T09:03:28.593Z,1.42
2019-04-01T09:06:31.189Z,1.31
2019-04-01T09:09:28.791Z,1.51
2019-04-01T09:12:29.504Z,1.4
2019-04-01T09:15:29.043Z,1.22
2019-04-01T09:18:28.834Z,1.45
2019-04-01T09:21:28.736Z,1.63
2019-04-01T09:24:28.522Z,1.54
2019-04-01T09:27:28.186Z,1.55
2019-04-01T09:30:32.146Z,1.4
2019-04-01T09:33:28.765Z,1.69
2019-04-01T09:36:28.453Z,1.65
2019-04-01T09:39:29.014Z,1.9
2019-04-01T09:42:28.682Z,1.43
2019-04-01T09:45:28.290Z,1.66
2019-04-01T09:48:28.925Z,2.06
2019-04-01T09:51:28.633Z,1.56
2019-04-01T09:54:28.379Z,1.8
2019-04-01T09:57:31.596Z,1.94
2019-04-01T10:00:28.389Z,1.46
2019-04-01T10:03:28.961Z,2.06
2019-04-01T10:06:28.590Z,1.84
2019-04-01T10:09:28.234Z,1.9
2019-04-01T10:12:28.817Z,1.9
2019-04-01T10:15:28.669Z,1.96
2019-04-01T10:18:28.316Z,2.1
2019-04-01T10:21:29.198Z,2.22
2019-04-01T10:24:29.002Z,2.19
2019-04-01T10:27:28.838Z,2.29
2019-04-01T10:30:29.013Z,2.09
2019-04-01T10:33:28.753Z,2.09
2019-04-01T10:36:28.550Z,2.22
2019-04-01T10:39:28.222Z,1.81
2019-04-01T10:42:28.814Z,2.23
2019-04-01T10:45:28.568Z,1.13
2019-04-01T10:48:28.327Z,1.07
2019-04-01T10:51:28.968Z,1.05
2019-04-01T10:54:28.698Z,1.08
2019-04-01T10:57:28.746Z,1.03
2019-04-01T11:00:28.835Z,1.12
2019-04-01T11:03:29.040Z,1.63
2019-04-01T11:06:29.251Z,1.5
2019-04-01T11:09:38.127Z,1.79
2019-04-01T11:12:28.422Z,2.21
2019-04-01T11:15:29.290Z,1.77
2019-04-01T11:18:29.094Z,1.67
2019-04-01T11:21:28.852Z,1.78
2019-04-01T11:24:28.618Z,1.8
2019-04-01T11:27:28.517Z,1.8
2019-04-01T11:30:28.387Z,2.01
2019-04-01T11:33:29.148Z,0.97
2019-04-01T11:36:28.910Z,0.9
2019-04-01T11:39:28.642Z,0.93
2019-04-01T11:42:28.279Z,0.86
2019-04-01T11:45:29.337Z,0.9
2019-04-01T11:48:29.110Z,0.9
2019-04-01T11:51:32.929Z,0.88
2019-04-01T11:54:28.978Z,0.85
2019-04-01T11:57:28.759Z,0.8
2019-04-01T12:00:29.402Z,0.78
2019-04-01T12:03:29.143Z,0.81
2019-04-01T12:06:28.787Z,0.8
2019-04-01T12:09:28.428Z,0.74
2019-04-01T12:12:37.487Z,0.77
2019-04-01T12:15:28.223Z,0.76
2019-04-01T12:18:28.949Z,0.71
2019-04-01T12:21:28.722Z,0.73
2019-04-01T12:24:28.360Z,0.73
2019-04-01T12:27:29.639Z,0.72
2019-04-01T12:30:28.362Z,0.66
2019-04-01T12:33:29.194Z,0.7
2019-04-01T12:36:28.959Z,0.68
2019-04-01T12:39:28.696Z,0.67
2019-04-01T12:42:30.063Z,0.67
2019-04-01T12:45:28.956Z,0.65
2019-04-01T12:48:28.632Z,0.6
2019-04-01T12:51:28.198Z,0.59
2019-04-01T12:54:29.038Z,0.59
2019-04-01T12:57:32.272Z,0.58
2019-04-01T13:00:29.411Z,0.57
2019-04-01T13:03:28.224Z,0.61
2019-04-01T13:06:28.727Z,0.59
2019-04-01T13:09:28.295Z,0.59
2019-04-01T13:12:29.137Z,0.58
2019-04-01T13:15:28.869Z,0.58
2019-04-01T13:18:28.610Z,0.52
2019-04-01T13:21:29.803Z,0.56
2019-04-01T13:24:28.232Z,0.5
2019-04-01T13:27:29.063Z,0.5
2019-04-01T13:30:29.073Z,0.53
2019-04-01T13:33:30.341Z,0.53
2019-04-01T13:36:29.031Z,0.52
2019-04-01T13:39:28.863Z,0.51
2019-04-01T13:42:28.654Z,0.46
2019-04-01T13:45:31.540Z,0.5
2019-04-01T13:48:28.659Z,0.49
2019-04-01T13:51:28.204Z,0.49
2019-04-01T13:54:28.944Z,0.48
2019-04-01T13:57:28.711Z,0.43
2019-04-01T14:00:28.371Z,0.42
2019-04-01T14:03:29.163Z,0.42
2019-04-01T14:06:28.987Z,0.46
2019-04-01T14:09:30.839Z,0.41
2019-04-01T14:12:28.787Z,0.4
2019-04-01T14:15:28.394Z,0.39
2019-04-01T14:18:28.261Z,0.38
2019-04-01T14:21:33.758Z,0.38
2019-04-01T14:24:29.393Z,0.42
2019-04-01T14:27:29.461Z,0.41
2019-04-01T14:30:28.201Z,0.4
2019-04-01T14:33:32.333Z,0.4
2019-04-01T14:36:28.389Z,0.39
2019-04-01T14:39:30.881Z,0.33
2019-04-01T14:42:28.748Z,0.37
2019-04-01T14:45:28.497Z,0.32
2019-04-01T14:48:28.253Z,0.32
2019-04-01T14:51:28.349Z,0.31
2019-04-01T14:54:29.268Z,0.35
2019-04-01T14:57:28.975Z,0.29
2019-04-01T15:00:28.699Z,0.33
2019-04-01T15:03:28.392Z,0.32
2019-04-01T15:06:30.286Z,0.27
2019-04-01T15:09:30.601Z,0.26
2019-04-01T15:12:28.342Z,0.3
2019-04-01T15:15:28.974Z,0.3
2019-04-01T15:18:29.610Z,0.29
2019-04-01T15:21:29.044Z,0.24
2019-04-01T15:24:28.818Z,0.28
2019-04-01T15:27:28.402Z,0.23
2019-04-01T15:30:31.900Z,0.22
2019-04-01T15:33:28.667Z,0.26
2019-04-01T15:36:28.380Z,0.25
2019-04-01T15:39:29.130Z,0.2
2019-04-01T15:42:28.826Z,0.24
2019-04-01T15:45:31.297Z,0.23
2019-04-01T15:48:28.865Z,0.18
2019-04-01T15:51:28.630Z,0.22
2019-04-01T15:54:28.274Z,0.17
2019-04-01T15:57:28.996Z,0.21
2019-04-01T16:00:28.823Z,0.15
2019-04-01T16:03:28.855Z,0.2
2019-04-01T16:09:28.702Z,0.15
2019-04-01T16:12:29.385Z,0.19
2019-04-01T16:15:31.890Z,0.13
2019-04-01T16:18:28.884Z,0.17
2019-04-01T16:21:31.424Z,0.17
2019-04-01T16:24:30.945Z,0.12
2019-04-01T16:27:28.797Z,0.11
2019-04-01T16:30:28.678Z,0.15
2019-04-01T16:33:28.709Z,0.1
2019-04-01T16:36:28.761Z,0.14
2019-04-01T16:39:28.510Z,0.09
2019-04-01T16:42:28.331Z,0.13
2019-04-01T16:45:29.128Z,0.07
2019-04-01T16:48:28.944Z,0.07
2019-04-01T16:51:29.040Z,0.11
2019-04-01T16:54:28.795Z,0.1
2019-04-01T16:57:28.777Z,0.1
2019-04-01T17:00:28.949Z,0.09
2019-04-01T17:03:29.153Z,0.09
2019-04-01T17:06:29.740Z,0.08
2019-04-01T17:09:28.731Z,0.03
2019-04-01T17:12:28.492Z,0.07
2019-04-01T17:15:28.517Z,0.02
2019-04-01T17:18:28.399Z,0.06
2019-04-01T17:21:29.217Z,0.01
2019-04-01T17:24:28.963Z,0.01
2019-04-01T17:27:28.963Z,0.05
2019-04-01T17:30:29.098Z,0.0
2019-04-01T17:33:28.893Z,0.0
2019-04-01T17:36:29.238Z,0.04
2019-04-01T17:39:29.087Z,0.0
2019-04-01T17:42:30.361Z,0.0
2019-04-01T17:45:33.750Z,0.0
2019-04-01T17:51:28.212Z,0.0
2019-04-01T17:54:28.940Z,0.01
2019-04-01T17:57:29.654Z,0.0
2019-04-01T18:00:29.617Z,0.0
2019-04-01T18:03:30.043Z,0.01
2019-04-01T18:06:28.710Z,0.0
2019-04-01T18:09:28.309Z,0.0
2019-04-01T18:12:28.972Z,0.0
2019-04-01T18:15:29.820Z,0.0
2019-04-01T18:18:40.540Z,0.0
2019-04-01T18:21:28.122Z,0.0
2019-04-01T18:24:28.516Z,0.0
2019-04-01T18:27:28.630Z,0.0
2019-04-01T18:30:28.636Z,0.0
2019-04-01T18:33:30.035Z,0.0
2019-04-01T18:36:28.803Z,0.0
2019-04-01T18:39:30.025Z,0.0
2019-04-01T18:42:28.835Z,0.0
2019-04-01T18:45:29.162Z,0.0
2019-04-01T18:48:28.756Z,0.0
2019-04-01T18:51:28.287Z,0.0
2019-04-01T18:54:28.940Z,0.0
2019-04-01T18:57:28.672Z,0.0
2019-04-01T19:00:28.336Z,0.0
2019-04-01T19:03:30.458Z,0.0
2019-04-01T19:06:29.119Z,0.0
2019-04-01T19:09:28.955Z,0.0
2019-04-01T19:12:28.220Z,0.0
2019-04-01T19:15:29.822Z,0.0
2019-04-01T19:18:29.004Z,0.0
2019-04-01T19:21:28.748Z,0.0
2019-04-01T19:24:28.684Z,0.0
2019-04-01T19:27:28.629Z,0.0
2019-04-01T19:30:28.632Z,0.0
2019-04-01T19:33:28.274Z,0.0
2019-04-01T19:36:29.085Z,0.0
2019-04-01T19:39:30.228Z,0.0
2019-04-01T19:42:28.295Z,0.0
2019-04-01T19:45:29.184Z,0.0
2019-04-01T19:48:28.932Z,0.0
2019-04-01T19:51:28.716Z,0.0
2019-04-01T19:54:31.498Z,0.0
2019-04-01T19:57:28.695Z,0.0
2019-04-01T20:00:41.141Z,0.0
2019-04-01T20:03:29.064Z,0.0
2019-04-01T20:06:28.768Z,0.0
2019-04-01T20:09:28.368Z,0.0
2019-04-01T20:12:28.991Z,0.0
2019-04-01T20:15:28.886Z,0.0
2019-04-01T20:18:28.643Z,0.0
2019-04-01T20:21:28.539Z,0.0
2019-04-01T20:24:28.143Z,0.0
2019-04-01T20:27:28.903Z,0.0
2019-04-01T20:30:28.897Z,0.0
2019-04-01T20:33:32.032Z,0.0
2019-04-01T20:36:42.159Z,0.0
2019-04-01T20:39:28.815Z,0.0
2019-04-01T20:42:33.481Z,0.0
2019-04-01T20:45:28.399Z,0.0
2019-04-01T20:48:29.042Z,0.0
2019-04-01T20:51:28.764Z,0.0
2019-04-01T20:54:29.694Z,0.0
2019-04-01T20:57:28.338Z,0.0
2019-04-01T21:00:29.120Z,0.0
2019-04-01T21:03:31.801Z,0.0
2019-04-01T21:06:28.396Z,0.0
2019-04-01T21:09:29.840Z,0.0
2019-04-01T21:12:28.452Z,0.0
2019-04-01T21:15:30.102Z,0.0
2019-04-01T21:18:28.792Z,0.0
2019-04-01T21:21:30.326Z,0.0
2019-04-01T21:24:28.833Z,0.0
2019-04-01T21:27:28.511Z,0.0
2019-04-01T21:30:28.182Z,0.0
2019-04-01T21:33:28.793Z,0.0
2019-04-01T21:36:29.332Z,0.0
2019-04-01T21:39:30.052Z,0.0
2019-04-01T21:42:28.092Z,0.0
2019-04-01T21:45:29.957Z,0.0
2019-04-01T21:48:28.561Z,0.0
2019-04-01T21:51:28.061Z,0.0
2019-04-01T21:54:28.657Z,0.0
2019-04-01T21:57:28.092Z,0.0
2019-04-01T22:00:43.980Z,0.0
2019-04-01T22:03:28.609Z,0.0
2019-04-01T22:06:28.145Z,0.0
2019-04-01T22:09:28.736Z,0.0
2019-04-01T22:12:28.307Z,0.0
2019-04-01T22:15:30.652Z,0.0
2019-04-01T22:18:28.322Z,0.0
2019-04-01T22:21:28.422Z,0.0
2019-04-01T22:24:29.077Z,0.0
2019-04-01T22:27:28.306Z,0.0
2019-04-01T22:30:30.507Z,0.0
2019-04-01T22:33:28.175Z,0.0
2019-04-01T22:36:31.226Z,0.0
2019-04-01T22:39:39.983Z,0.0
2019-04-01T22:42:28.482Z,0.0
2019-04-01T22:45:28.126Z,0.0
2019-04-01T22:48:28.634Z,0.0
2019-04-01T22:51:28.171Z,0.0
2019-04-01T22:54:28.683Z,0.0
2019-04-01T22:57:28.637Z,0.0
2019-04-01T23:00:28.222Z,0.0
2019-04-01T23:03:28.846Z,0.0
2019-04-01T23:06:28.291Z,0.0
2019-04-01T23:09:29.021Z,0.0
2019-04-01T23:12:28.658Z,0.0
2019-04-01T23:15:28.737Z,0.0
2019-04-01T23:18:28.379Z,0.0
2019-04-01T23:21:28.883Z,0.0
2019-04-01T23:24:28.317Z,0.0
2019-04-01T23:27:28.291Z,0.0
2019-04-01T23:30:28.738Z,0.0
2019-04-01T23:33:29.417Z,0.0
2019-04-01T23:36:28.825Z,0.0
2019-04-01T23:39:28.299Z,0.0
2019-04-01T23:42:28.839Z,0.0
2019-04-01T23:45:28.428Z,0.0
2019-04-01T23:48:28.859Z,0.0
2019-04-01T23:51:28.424Z,0.0
2019-04-01T23:54:28.961Z,0.0
2019-04-01T23:57:28.975Z,0.0
